Los Posos, Valles Caldera, New Mexico Weather observations

Data are for 10 minute period ending at time listed.
 Day   Time   Solar   Ave.   Ave.  Ave.  Vector  Max.   Baro.   Total    
  of    of     Rad.   Air    Rel.  Wind   Wind   Wind  Press.  Precip.   
Year   Day            Temp.  Hum.  Speed  Dir.   Gust                    
2016   (MST)  Kw/m2    F      %     mph   deg.    mph    mb.     in.     
-------------------------------------------------------------------------
 210    0:30   0.00   58.1    64    3.6   134     6.0   99999.0    0.00 
 210    0:40   0.00   55.1    66    3.1   338     5.4   99999.0    0.00 
 210    0:50   0.00   51.6    74    1.8   293     3.0   99999.0    0.00 
 210    1:00   0.00   51.9    75    1.9   157     5.4   99999.0    0.00 
 210    1:10   0.00   51.9    75    2.4   350     3.6   99999.0    0.00 
 210    1:20   0.00   50.0    78    2.6   308     4.8   99999.0    0.00 
 210    1:30   0.00   49.1    81    2.2   269     4.2   99999.0    0.00 
 210    1:40   0.00   50.3    80    3.1   330     6.0   99999.0    0.00 
 210    1:50   0.00   50.7    80    2.4     5     4.8   99999.0    0.00 
 210    2:00   0.00   50.4    81    2.2    74     4.8   99999.0    0.00 
 210    2:10   0.00   49.7    82    2.2   234     4.2   99999.0    0.00 
 210    2:20   0.00   48.8    84    2.3   245     3.6   99999.0    0.00 
 210    2:30   0.00   48.5    86    1.9   139     4.2   99999.0    0.00 
 210    2:40   0.00   48.3    86    0.2   206     1.8   99999.0    0.00 
 210    2:50   0.00   47.4    87    0.6   245     3.6   99999.0    0.00 
 210    3:00   0.00   46.2    88    1.1   278     2.4   99999.0    0.00 
 210    3:10   0.00   46.4    90    0.5   178     1.8   99999.0    0.00 
 210    3:20   0.00   46.2    90    0.8    58     4.8   99999.0    0.00 
 210    3:30   0.00   45.5    90    2.2   248     4.2   99999.0    0.00 
 210    3:40   0.00   45.1    91    1.5   248     3.6   99999.0    0.00 
 210    3:50   0.00   44.5    91    0.9   337     4.2   99999.0    0.00 
 210    4:00   0.00   44.1    92    0.5   224     1.8   99999.0    0.00 
 210    4:10   0.00   43.9    92    1.7   249     3.6   99999.0    0.00 
 210    4:20   0.00   43.6    93    0.3   231     1.8   99999.0    0.00 
 210    4:30   0.00   44.1    93    0.8   234     1.8   99999.0    0.00 
 210    4:40   0.00   43.8    93    0.0     0     0.0   99999.0    0.00 
 210    4:50   0.00   44.6    94    0.1   239     1.8   99999.0    0.00 
 210    5:00   0.00   44.1    94    0.5   243     1.8   99999.0    0.00 
 210    5:10   0.00   43.6    94    0.6   270     2.4   99999.0    0.00 
 210    5:20   0.01   42.9    94    1.3   254     3.0   99999.0    0.00 
 210    5:30   0.01   43.2    94    2.4   250     4.2   99999.0    0.00 
 210    5:40   0.02   43.5    94    1.8   247     3.0   99999.0    0.00 
 210    5:50   0.07   45.2    95    0.9   250     1.8   99999.0    0.00 
 210    6:00   0.11   47.1    93    1.3   239     2.4   99999.0    0.00 
 210    6:10   0.15   49.7    91    1.0    39     2.4   99999.0    0.00 
 210    6:20   0.17   52.4    85    1.1   325     2.4   99999.0    0.00 
 210    6:30   0.20   55.0    85    0.1    41     2.4   99999.0    0.00 
 210    6:40   0.24   59.1    77    1.5     7     2.4   99999.0    0.00 
 210    6:50   0.27   62.9    68    0.1   346     1.2   99999.0    0.00 
 210    7:00   0.30   65.8    62    0.8   344     1.8   99999.0    0.00 
 210    7:10   0.33   67.7    59    1.1    28     2.4   99999.0    0.00 
 210    7:20   0.36   69.1    57    0.9    62     2.4   99999.0    0.00 
 210    7:30   0.40   71.2    50    1.8    46     3.0   99999.0    0.00 
 210    7:40   0.43   70.6    46    2.0   128     3.6   99999.0    0.00 
 210    7:50   0.46   69.2    48    1.5   194     3.0   99999.0    0.00 
 210    8:00   0.49   71.2    46    2.3    64     7.2   99999.0    0.00 
 210    8:10   0.53   67.8    52    5.3   162     7.2   99999.0    0.00 
 210    8:20   0.56   67.7    52    5.5   159     8.4   99999.0    0.00 
 210    8:30   0.59   68.3    49    5.7   155     9.0   99999.0    0.00 
 210    8:40   0.62   69.3    46    5.3   149     9.0   99999.0    0.00 
 210    8:50   0.65   70.1    44    5.6   178     9.0   99999.0    0.00 
 210    9:00   0.68   71.0    40    5.3   159    13.1   99999.0    0.00 
 210    9:10   0.70   71.2    39    5.6   178    12.5   99999.0    0.00 
 210    9:20   0.73   71.5    39    5.0   182     9.0   99999.0    0.00 
 210    9:30   0.76   72.0    38    5.1   170     9.6   99999.0    0.00 
 210    9:40   0.78   72.3    38    4.7   154     9.6   99999.0    0.00 
 210    9:50   0.80   73.5    36    3.1   158     7.2   99999.0    0.00 
 210   10:00   0.83   74.0    37    4.8   116     9.6   99999.0    0.00 
 210   10:10   0.88   74.2    37    5.2   148     8.4   99999.0    0.00 
 210   10:20   0.91   73.8    36    5.1   138    10.8   99999.0    0.00 
 210   10:30   0.95   75.7    35    3.9   112     6.6   99999.0    0.00 
 210   10:40   0.98   77.1    32    5.4   228    10.2   99999.0    0.00 
 210   10:50   1.03   75.4    33    5.5   209    12.5   99999.0    0.00 
 210   11:00   1.08   77.1    31    3.9   157     7.2   99999.0    0.00 
 210   11:10   0.85   77.3    32    5.6   186    11.9   99999.0    0.00 
 210   11:20   0.20   73.3    35    3.3   147     7.2   99999.0    0.00 
 210   11:30   0.11   72.6    36    4.2    58     9.0   99999.0    0.00 
 210   11:40   0.05   69.7    41    7.9    52    13.1   99999.0    0.00 
 210   11:50   0.05   64.0    56    5.2    28     9.6   99999.0    0.00 
 210   12:00   0.06   61.8    66    5.2    60     9.6   99999.0    0.00 
 210   12:10   0.07   63.3    52    6.0   106    10.2   99999.0    0.00 
 210   12:20   0.08   62.8    60    3.5   337     5.4   99999.0    0.00 
 210   12:30   0.05   60.8    64    5.5   336     9.0   99999.0    0.00 
 210   12:40   0.04   62.1    57    4.2   268     7.8   99999.0    0.00 
 210   12:50   0.04   62.5    60    4.5   180     8.4   99999.0    0.01 
 210   13:00   0.08   62.0    62    2.8   178     4.8   99999.0    0.00 
 210   13:10   0.15   61.8    63    3.4   196     7.2   99999.0    0.00 
 210   13:20   0.27   62.0    64    6.5   162     9.6   99999.0    0.00 
 210   13:30   0.23   62.5    65    4.6   236    10.8   99999.0    0.00 
 210   13:40   0.19   62.5    66    5.8   314    10.8   99999.0    0.00 
 210   13:50   0.26   63.1    63    3.5   188     7.8   99999.0    0.00 
 210   14:00   0.69   65.1    59    4.2   160     7.8   99999.0    0.00 
 210   14:10   0.95   69.9    46    5.8   175    11.9   99999.0    0.00 
 210   14:20   0.93   71.8    39    6.3   182    10.8   99999.0    0.00 
 210   14:30   0.84   73.9    32    5.1   191     9.6   99999.0    0.00 
 210   14:40   0.41   73.7    29    4.8   208     7.8   99999.0    0.00 
 210   14:50   0.23   71.5    28    3.6   218     7.8   99999.0    0.00 
 210   15:00   0.62   71.7    32    5.1   277     8.4   99999.0    0.00 
 210   15:10   0.92   74.6    32    4.8   278     8.4   99999.0    0.00 
 210   15:20   0.70   76.3    28    3.6   249     8.4   99999.0    0.00 
 210   15:30   0.22   74.0    28    4.5   241     8.4   99999.0    0.00 
 210   15:40   0.21   72.0    32    4.9   298    13.1   99999.0    0.00 
 210   15:50   0.18   71.7    34    2.8     3     7.8   99999.0    0.00 
 210   16:00   0.16   71.8    27    6.7    47    23.9   99999.0    0.00 
 210   16:10   0.17   72.2    30    5.5    35    12.5   99999.0    0.00 
 210   16:20   0.36   73.0    31    3.9    21     6.6   99999.0    0.00 
 210   16:30   0.34   75.9    30    6.2    28    10.8   99999.0    0.00 
 210   16:40   0.35   74.9    30    7.7    46    11.3   99999.0    0.00 
 210   16:50   0.42   75.9    30    8.1    52    11.3   99999.0    0.00 
 210   17:00   0.42   77.8    27    9.0    56    17.9   99999.0    0.00 
 210   17:10   0.38   75.5    27    9.9    59    16.7   99999.0    0.00 
 210   17:20   0.13   74.3    28    8.0    66    14.3   99999.0    0.00 
 210   17:30   0.05   70.5    31   10.0    53    15.5   99999.0    0.00 
 210   17:40   0.05   68.9    33    8.5    56    15.5   99999.0    0.00 
 210   17:50   0.10   68.9    32    9.4    38    14.3   99999.0    0.00 
 210   18:00   0.04   68.3    32    7.9    42    13.1   99999.0    0.00 
 210   18:10   0.02   67.3    33    4.3    40     8.4   99999.0    0.00 
 210   18:20   0.01   66.6    35    1.8   239     4.2   99999.0    0.00 
 210   18:30   0.01   65.2    41    2.8   234     3.6   99999.0    0.00 
 210   18:40   0.01   63.7    44    2.8   251     6.6   99999.0    0.00 
 210   18:50   0.01   65.6    35    2.8    15     6.0   99999.0    0.00 
 210   19:00   0.01   64.6    40    2.8   152     4.8   99999.0    0.00 
 210   19:10   0.01   62.8    46    2.8   178     5.4   99999.0    0.00 
 210   19:20   0.01   63.3    42    2.4   186     4.2   99999.0    0.00 
 210   19:30   0.00   61.9    48    2.1   246     4.8   99999.0    0.00 
 210   19:40   0.00   61.4    49    1.1   204     3.0   99999.0    0.00 
 210   19:50   0.00   62.5    43    2.0    82     4.2   99999.0    0.00 
 210   20:00   0.00   60.7    51    0.7   226     2.4   99999.0    0.00 
 210   20:10   0.00   58.3    59    1.5   256     3.0   99999.0    0.00 
 210   20:20   0.00   55.5    66    1.3   239     3.0   99999.0    0.00 
 210   20:30   0.00   54.4    66    0.8   232     2.4   99999.0    0.00 
 210   20:40   0.00   53.5    66    1.2   316     3.0   99999.0    0.00 
 210   20:50   0.00   51.1    70    2.7   296     4.2   99999.0    0.00 
 210   21:00   0.00   51.0    71    1.9   264     3.0   99999.0    0.00 
 210   21:10   0.00   49.9    72    1.9   321     2.4   99999.0    0.00 
 210   21:20   0.00   49.2    74    1.5   282     2.4   99999.0    0.00 
 210   21:30   0.00   48.4    76    1.8   278     3.0   99999.0    0.00 
 210   21:40   0.00   48.0    77    1.5   276     3.0   99999.0    0.00 
 210   21:50   0.00   47.3    77    1.5   260     3.0   99999.0    0.00 
 210   22:00   0.00   47.1    77    1.9   248     3.6   99999.0    0.00 
 210   22:10   0.00   47.0    78    2.6   245     3.6   99999.0    0.00 
 210   22:20   0.00   47.4    79    2.1   241     3.0   99999.0    0.00 
 210   22:30   0.00   48.0    78    0.7   291     2.4   99999.0    0.00 
 210   22:40   0.00   48.0    78    0.3   292     2.4   99999.0    0.00 
 210   22:50   0.00   48.8    76    0.0   288     1.2   99999.0    0.00 
 210   23:00   0.00   49.0    75    0.4   344     1.8   99999.0    0.00 
 210   23:10   0.00   49.0    76    0.6   301     3.0   99999.0    0.00 
 210   23:20   0.00   49.6    74    1.4   228     3.6   99999.0    0.00 
 210   23:30   0.00   49.5    71    2.6   226     4.2   99999.0    0.00 
 210   23:40   0.00   48.7    73    1.6   230     4.2   99999.0    0.00 
 210   23:50   0.00   49.4    68    1.1   214     3.0   99999.0    0.00 
 211    0:00   0.00   49.7    70    3.2   229     4.2   99999.0    0.00 
 211    0:10   0.00   50.2    67    1.5   226     3.0   99999.0    0.00 
 211    0:20   0.00   49.8    67    1.0   217     3.0   99999.0    0.00 

Return to Los Posos, Valles Caldera graphs page.


Western Regional Climate Center,wrcc@dri.edu